sensor_id;sensor_type;location;lat;lon;timestamp;pressure;altitude;pressure_sealevel;temperature;humidity
49377;BME280;35253;34.688;33.040;2022-10-22T00:00:49;101167.41;;;21.69;100.00
49377;BME280;35253;34.688;33.040;2022-10-22T00:03:15;101174.50;;;21.52;100.00
49377;BME280;35253;34.688;33.040;2022-10-22T00:05:40;101167.63;;;21.58;100.00
49377;BME280;35253;34.688;33.040;2022-10-22T00:08:06;101165.91;;;21.57;100.00
49377;BME280;35253;34.688;33.040;2022-10-22T00:10:31;101156.59;;;21.59;100.00
49377;BME280;35253;34.688;33.040;2022-10-22T00:12:56;101160.50;;;21.57;100.00
49377;BME280;35253;34.688;33.040;2022-10-22T00:15:22;101155.88;;;21.67;100.00
49377;BME280;35253;34.688;33.040;2022-10-22T00:17:47;101160.81;;;21.54;100.00
49377;BME280;35253;34.688;33.040;2022-10-22T00:20:13;101153.66;;;21.53;100.00
49377;BME280;35253;34.688;33.040;2022-10-22T00:22:39;101160.38;;;21.49;100.00
49377;BME280;35253;34.688;33.040;2022-10-22T00:25:04;101163.53;;;21.44;100.00
49377;BME280;35253;34.688;33.040;2022-10-22T00:27:30;101165.63;;;21.50;100.00
49377;BME280;35253;34.688;33.040;2022-10-22T00:29:55;101157.22;;;21.53;100.00
49377;BME280;35253;34.688;33.040;2022-10-22T00:32:21;101147.91;;;21.56;100.00
49377;BME280;35253;34.688;33.040;2022-10-22T00:34:46;101160.50;;;21.57;100.00
49377;BME280;35253;34.688;33.040;2022-10-22T00:37:11;101152.22;;;21.58;100.00
49377;BME280;35253;34.688;33.040;2022-10-22T00:39:37;101150.72;;;21.64;100.00
49377;BME280;35253;34.688;33.040;2022-10-22T00:42:02;101163.34;;;21.55;100.00
49377;BME280;35253;34.688;33.040;2022-10-22T00:47:12;101161.06;;;21.51;100.00
49377;BME280;35253;34.688;33.040;2022-10-22T00:49:38;101144.78;;;21.51;100.00
49377;BME280;35253;34.688;33.040;2022-10-22T00:52:04;101140.53;;;21.48;100.00
49377;BME280;35253;34.688;33.040;2022-10-22T00:54:29;101138.28;;;21.44;100.00
49377;BME280;35253;34.688;33.040;2022-10-22T00:56:55;101140.56;;;21.39;100.00
49377;BME280;35253;34.688;33.040;2022-10-22T00:59:20;101138.00;;;21.37;100.00
49377;BME280;35253;34.688;33.040;2022-10-22T01:01:46;101133.53;;;21.19;100.00
49377;BME280;35253;34.688;33.040;2022-10-22T01:04:12;101134.31;;;21.29;100.00
49377;BME280;35253;34.688;33.040;2022-10-22T01:06:37;101137.66;;;21.13;100.00
49377;BME280;35253;34.688;33.040;2022-10-22T01:09:09;101141.56;;;20.72;100.00
49377;BME280;35253;34.688;33.040;2022-10-22T01:14:17;101145.00;;;20.74;100.00
49377;BME280;35253;34.688;33.040;2022-10-22T01:16:53;101141.53;;;20.91;100.00
49377;BME280;35253;34.688;33.040;2022-10-22T01:22:07;101150.72;;;20.71;100.00
49377;BME280;35253;34.688;33.040;2022-10-22T01:27:11;101140.03;;;20.60;100.00
49377;BME280;35253;34.688;33.040;2022-10-22T01:29:42;101153.13;;;20.64;100.00
49377;BME280;35253;34.688;33.040;2022-10-22T01:32:12;101148.69;;;20.83;100.00
49377;BME280;35253;34.688;33.040;2022-10-22T01:34:39;101151.50;;;21.00;100.00
49377;BME280;35253;34.688;33.040;2022-10-22T01:37:06;101158.34;;;21.04;100.00
49377;BME280;35253;34.688;33.040;2022-10-22T01:39:32;101153.00;;;20.56;100.00
49377;BME280;35253;34.688;33.040;2022-10-22T01:41:59;101154.41;;;20.70;100.00
49377;BME280;35253;34.688;33.040;2022-10-22T01:44:31;101154.97;;;20.93;100.00
49377;BME280;35253;34.688;33.040;2022-10-22T01:52:33;101163.84;;;20.66;100.00
49377;BME280;35253;34.688;33.040;2022-10-22T01:57:33;101161.06;;;21.04;100.00
49377;BME280;35253;34.688;33.040;2022-10-22T02:00:09;101163.94;;;21.12;100.00
49377;BME280;35253;34.688;33.040;2022-10-22T02:02:46;101163.25;;;20.72;100.00
49377;BME280;35253;34.688;33.040;2022-10-22T02:05:20;101159.97;;;20.59;100.00
49377;BME280;35253;34.688;33.040;2022-10-22T02:07:48;101160.97;;;20.77;100.00
49377;BME280;35253;34.688;33.040;2022-10-22T02:10:15;101166.50;;;20.95;100.00
49377;BME280;35253;34.688;33.040;2022-10-22T02:12:42;101174.06;;;20.91;100.00
49377;BME280;35253;34.688;33.040;2022-10-22T02:15:09;101170.63;;;20.99;100.00
49377;BME280;35253;34.688;33.040;2022-10-22T02:17:35;101168.34;;;20.94;100.00
49377;BME280;35253;34.688;33.040;2022-10-22T02:20:05;101177.03;;;21.07;100.00
49377;BME280;35253;34.688;33.040;2022-10-22T02:22:30;101169.66;;;20.90;100.00
49377;BME280;35253;34.688;33.040;2022-10-22T02:24:56;101176.75;;;21.10;100.00
49377;BME280;35253;34.688;33.040;2022-10-22T02:27:29;101175.50;;;20.76;100.00
49377;BME280;35253;34.688;33.040;2022-10-22T02:32:36;101185.50;;;20.47;100.00
49377;BME280;35253;34.688;33.040;2022-10-22T02:35:06;101182.50;;;20.50;100.00
49377;BME280;35253;34.688;33.040;2022-10-22T02:37:32;101179.50;;;20.34;100.00
49377;BME280;35253;34.688;33.040;2022-10-22T02:39:58;101184.34;;;20.59;100.00
49377;BME280;35253;34.688;33.040;2022-10-22T02:42:23;101195.34;;;20.67;100.00
49377;BME280;35253;34.688;33.040;2022-10-22T02:44:50;101186.94;;;20.80;100.00
49377;BME280;35253;34.688;33.040;2022-10-22T02:47:16;101194.03;;;20.90;100.00
49377;BME280;35253;34.688;33.040;2022-10-22T02:49:41;101196.19;;;20.96;100.00
49377;BME280;35253;34.688;33.040;2022-10-22T02:52:06;101196.06;;;20.88;100.00
49377;BME280;35253;34.688;33.040;2022-10-22T02:54:32;101189.47;;;20.91;100.00
49377;BME280;35253;34.688;33.040;2022-10-22T02:56:57;101193.47;;;20.96;100.00
49377;BME280;35253;34.688;33.040;2022-10-22T02:59:23;101201.31;;;20.99;100.00
49377;BME280;35253;34.688;33.040;2022-10-22T03:01:48;101203.59;;;21.04;100.00
49377;BME280;35253;34.688;33.040;2022-10-22T03:04:14;101207.72;;;21.08;100.00
49377;BME280;35253;34.688;33.040;2022-10-22T03:06:39;101202.00;;;21.21;100.00
49377;BME280;35253;34.688;33.040;2022-10-22T03:09:08;101208.84;;;21.25;100.00
49377;BME280;35253;34.688;33.040;2022-10-22T03:11:33;101202.63;;;21.15;100.00
49377;BME280;35253;34.688;33.040;2022-10-22T03:13:58;101209.19;;;20.83;100.00
49377;BME280;35253;34.688;33.040;2022-10-22T03:16:24;101196.47;;;20.55;100.00
49377;BME280;35253;34.688;33.040;2022-10-22T03:18:49;101197.47;;;20.83;100.00
49377;BME280;35253;34.688;33.040;2022-10-22T03:21:20;101205.63;;;20.83;100.00
49377;BME280;35253;34.688;33.040;2022-10-22T03:23:49;101202.03;;;20.92;100.00
49377;BME280;35253;34.688;33.040;2022-10-22T03:26:16;101207.47;;;21.01;100.00
49377;BME280;35253;34.688;33.040;2022-10-22T03:28:41;101209.00;;;21.04;100.00
49377;BME280;35253;34.688;33.040;2022-10-22T03:31:07;101205.19;;;20.87;100.00
49377;BME280;35253;34.688;33.040;2022-10-22T03:33:33;101214.00;;;21.08;100.00
49377;BME280;35253;34.688;33.040;2022-10-22T03:35:58;101207.84;;;21.26;100.00
49377;BME280;35253;34.688;33.040;2022-10-22T03:38:24;101207.16;;;21.04;100.00
49377;BME280;35253;34.688;33.040;2022-10-22T03:40:50;101215.44;;;21.12;100.00
49377;BME280;35253;34.688;33.040;2022-10-22T03:43:15;101207.72;;;20.98;100.00
49377;BME280;35253;34.688;33.040;2022-10-22T03:45:41;101212.88;;;20.92;100.00
49377;BME280;35253;34.688;33.040;2022-10-22T03:48:07;101212.44;;;21.16;100.00
49377;BME280;35253;34.688;33.040;2022-10-22T03:50:32;101213.47;;;21.15;100.00
49377;BME280;35253;34.688;33.040;2022-10-22T03:52:58;101212.59;;;21.24;100.00
49377;BME280;35253;34.688;33.040;2022-10-22T03:55:24;101221.41;;;21.26;100.00
49377;BME280;35253;34.688;33.040;2022-10-22T03:57:49;101223.69;;;21.30;100.00
49377;BME280;35253;34.688;33.040;2022-10-22T04:00:15;101217.28;;;21.22;100.00
49377;BME280;35253;34.688;33.040;2022-10-22T04:02:40;101217.81;;;21.44;100.00
49377;BME280;35253;34.688;33.040;2022-10-22T04:05:06;101218.25;;;21.40;100.00
49377;BME280;35253;34.688;33.040;2022-10-22T04:07:31;101227.38;;;21.39;100.00
49377;BME280;35253;34.688;33.040;2022-10-22T04:09:57;101218.38;;;21.38;100.00
49377;BME280;35253;34.688;33.040;2022-10-22T04:12:22;101233.38;;;21.33;100.00
49377;BME280;35253;34.688;33.040;2022-10-22T04:14:48;101223.13;;;21.36;100.00
49377;BME280;35253;34.688;33.040;2022-10-22T04:17:13;101227.81;;;21.34;100.00
49377;BME280;35253;34.688;33.040;2022-10-22T04:19:39;101233.97;;;21.36;100.00
49377;BME280;35253;34.688;33.040;2022-10-22T04:22:04;101230.19;;;21.56;100.00
49377;BME280;35253;34.688;33.040;2022-10-22T04:24:30;101235.09;;;21.34;100.00
49377;BME280;35253;34.688;33.040;2022-10-22T04:26:56;101228.78;;;21.43;100.00
49377;BME280;35253;34.688;33.040;2022-10-22T04:29:21;101234.56;;;21.21;100.00
49377;BME280;35253;34.688;33.040;2022-10-22T04:31:47;101242.56;;;21.22;100.00
49377;BME280;35253;34.688;33.040;2022-10-22T04:34:12;101252.81;;;21.28;100.00
49377;BME280;35253;34.688;33.040;2022-10-22T04:36:38;101251.38;;;21.34;100.00
49377;BME280;35253;34.688;33.040;2022-10-22T04:39:03;101249.09;;;21.39;100.00
49377;BME280;35253;34.688;33.040;2022-10-22T04:41:30;101257.63;;;21.44;100.00
49377;BME280;35253;34.688;33.040;2022-10-22T04:43:57;101252.78;;;21.47;100.00
49377;BME280;35253;34.688;33.040;2022-10-22T04:46:23;101257.97;;;21.22;100.00
49377;BME280;35253;34.688;33.040;2022-10-22T04:48:49;101258.50;;;21.35;100.00
49377;BME280;35253;34.688;33.040;2022-10-22T04:51:16;101257.19;;;21.48;100.00
49377;BME280;35253;34.688;33.040;2022-10-22T04:53:41;101258.72;;;21.70;100.00
49377;BME280;35253;34.688;33.040;2022-10-22T04:56:08;101268.25;;;21.74;100.00
49377;BME280;35253;34.688;33.040;2022-10-22T04:58:34;101267.81;;;21.79;100.00
49377;BME280;35253;34.688;33.040;2022-10-22T05:01:00;101266.97;;;21.78;100.00
49377;BME280;35253;34.688;33.040;2022-10-22T05:03:32;101270.19;;;21.91;100.00
49377;BME280;35253;34.688;33.040;2022-10-22T05:05:59;101267.06;;;21.86;100.00
49377;BME280;35253;34.688;33.040;2022-10-22T05:08:25;101272.34;;;21.88;100.00
49377;BME280;35253;34.688;33.040;2022-10-22T05:10:50;101293.81;;;21.81;100.00
49377;BME280;35253;34.688;33.040;2022-10-22T05:13:15;101295.75;;;21.98;100.00
49377;BME280;35253;34.688;33.040;2022-10-22T05:15:41;101300.31;;;22.08;100.00
49377;BME280;35253;34.688;33.040;2022-10-22T05:18:06;101303.75;;;22.10;100.00
49377;BME280;35253;34.688;33.040;2022-10-22T05:20:32;101310.06;;;21.91;100.00
49377;BME280;35253;34.688;33.040;2022-10-22T05:22:57;101315.25;;;21.75;100.00
49377;BME280;35253;34.688;33.040;2022-10-22T05:25:23;101319.19;;;21.90;100.00
49377;BME280;35253;34.688;33.040;2022-10-22T05:27:48;101328.66;;;21.95;100.00
49377;BME280;35253;34.688;33.040;2022-10-22T05:30:14;101324.63;;;21.99;100.00
49377;BME280;35253;34.688;33.040;2022-10-22T05:32:40;101325.78;;;22.07;100.00
49377;BME280;35253;34.688;33.040;2022-10-22T05:35:05;101337.19;;;22.10;100.00
49377;BME280;35253;34.688;33.040;2022-10-22T05:37:31;101332.41;;;22.22;100.00
49377;BME280;35253;34.688;33.040;2022-10-22T05:39:56;101336.75;;;22.15;100.00
49377;BME280;35253;34.688;33.040;2022-10-22T05:42:21;101344.28;;;22.21;100.00
49377;BME280;35253;34.688;33.040;2022-10-22T05:44:47;101343.47;;;22.38;100.00
49377;BME280;35253;34.688;33.040;2022-10-22T05:47:12;101347.63;;;22.42;100.00
49377;BME280;35253;34.688;33.040;2022-10-22T05:49:38;101344.50;;;22.37;100.00
49377;BME280;35253;34.688;33.040;2022-10-22T05:52:03;101349.31;;;22.43;100.00
49377;BME280;35253;34.688;33.040;2022-10-22T05:54:29;101356.03;;;22.48;100.00
49377;BME280;35253;34.688;33.040;2022-10-22T05:56:54;101356.50;;;22.71;100.00
49377;BME280;35253;34.688;33.040;2022-10-22T05:59:19;101346.81;;;22.86;100.00
49377;BME280;35253;34.688;33.040;2022-10-22T06:01:47;101355.28;;;23.01;100.00
49377;BME280;35253;34.688;33.040;2022-10-22T06:04:13;101364.38;;;23.10;100.00
49377;BME280;35253;34.688;33.040;2022-10-22T06:06:44;101367.19;;;23.18;100.00
49377;BME280;35253;34.688;33.040;2022-10-22T06:09:19;101365.97;;;23.30;100.00
49377;BME280;35253;34.688;33.040;2022-10-22T06:11:46;101369.03;;;23.35;100.00
49377;BME280;35253;34.688;33.040;2022-10-22T06:14:12;101369.84;;;23.45;100.00
49377;BME280;35253;34.688;33.040;2022-10-22T06:16:38;101375.75;;;23.58;100.00
49377;BME280;35253;34.688;33.040;2022-10-22T06:19:03;101383.97;;;23.66;100.00
49377;BME280;35253;34.688;33.040;2022-10-22T06:21:29;101381.44;;;23.65;100.00
49377;BME280;35253;34.688;33.040;2022-10-22T06:23:56;101389.25;;;23.86;100.00
49377;BME280;35253;34.688;33.040;2022-10-22T06:26:21;101383.38;;;23.98;100.00
49377;BME280;35253;34.688;33.040;2022-10-22T06:28:50;101389.00;;;23.79;100.00
49377;BME280;35253;34.688;33.040;2022-10-22T06:31:15;101395.53;;;23.60;100.00
49377;BME280;35253;34.688;33.040;2022-10-22T06:33:40;101396.59;;;23.67;100.00
49377;BME280;35253;34.688;33.040;2022-10-22T06:36:11;101400.38;;;23.74;100.00
49377;BME280;35253;34.688;33.040;2022-10-22T06:38:37;101402.91;;;23.94;100.00
49377;BME280;35253;34.688;33.040;2022-10-22T06:41:03;101406.50;;;23.94;100.00
49377;BME280;35253;34.688;33.040;2022-10-22T06:43:29;101405.59;;;24.11;100.00
49377;BME280;35253;34.688;33.040;2022-10-22T06:45:57;101406.28;;;24.13;100.00
49377;BME280;35253;34.688;33.040;2022-10-22T06:48:23;101409.84;;;24.14;100.00
49377;BME280;35253;34.688;33.040;2022-10-22T06:50:49;101405.81;;;24.18;100.00
49377;BME280;35253;34.688;33.040;2022-10-22T06:53:14;101399.69;;;24.16;100.00
49377;BME280;35253;34.688;33.040;2022-10-22T06:55:40;101409.44;;;24.01;100.00
49377;BME280;35253;34.688;33.040;2022-10-22T06:58:05;101409.22;;;23.94;100.00
49377;BME280;35253;34.688;33.040;2022-10-22T07:00:31;101405.25;;;23.89;100.00
49377;BME280;35253;34.688;33.040;2022-10-22T07:02:56;101415.53;;;23.95;100.00
49377;BME280;35253;34.688;33.040;2022-10-22T07:05:22;101418.94;;;23.97;100.00
49377;BME280;35253;34.688;33.040;2022-10-22T07:07:47;101409.31;;;24.10;100.00
49377;BME280;35253;34.688;33.040;2022-10-22T07:10:13;101410.97;;;24.21;100.00
49377;BME280;35253;34.688;33.040;2022-10-22T07:12:38;101414.00;;;24.18;100.00
49377;BME280;35253;34.688;33.040;2022-10-22T07:15:04;101405.44;;;24.13;100.00
49377;BME280;35253;34.688;33.040;2022-10-22T07:17:29;101402.84;;;24.29;100.00
49377;BME280;35253;34.688;33.040;2022-10-22T07:19:55;101410.25;;;24.19;100.00
49377;BME280;35253;34.688;33.040;2022-10-22T07:22:20;101405.44;;;24.13;100.00
49377;BME280;35253;34.688;33.040;2022-10-22T07:24:46;101404.72;;;24.11;100.00
49377;BME280;35253;34.688;33.040;2022-10-22T07:27:12;101401.44;;;24.25;100.00
49377;BME280;35253;34.688;33.040;2022-10-22T07:29:37;101402.50;;;24.32;100.00
49377;BME280;35253;34.688;33.040;2022-10-22T07:32:03;101404.97;;;24.43;100.00
49377;BME280;35253;34.688;33.040;2022-10-22T07:34:28;101412.78;;;24.38;100.00
49377;BME280;35253;34.688;33.040;2022-10-22T07:36:54;101404.28;;;24.49;100.00
49377;BME280;35253;34.688;33.040;2022-10-22T07:39:21;101414.56;;;24.55;100.00
49377;BME280;35253;34.688;33.040;2022-10-22T07:41:46;101402.81;;;24.63;100.00
49377;BME280;35253;34.688;33.040;2022-10-22T07:44:12;101405.78;;;24.69;100.00
49377;BME280;35253;34.688;33.040;2022-10-22T07:46:37;101400.97;;;24.72;100.00
49377;BME280;35253;34.688;33.040;2022-10-22T07:49:03;101397.97;;;24.83;100.00
49377;BME280;35253;34.688;33.040;2022-10-22T07:51:28;101395.56;;;24.80;100.00
49377;BME280;35253;34.688;33.040;2022-10-22T07:53:54;101398.63;;;24.77;100.00
49377;BME280;35253;34.688;33.040;2022-10-22T07:56:19;101398.63;;;24.77;100.00
49377;BME280;35253;34.688;33.040;2022-10-22T07:58:44;101397.66;;;24.86;100.00
49377;BME280;35253;34.688;33.040;2022-10-22T08:01:10;101395.44;;;24.89;100.00
49377;BME280;35253;34.688;33.040;2022-10-22T08:03:35;101398.03;;;24.91;100.00
49377;BME280;35253;34.688;33.040;2022-10-22T08:06:01;101399.75;;;25.00;100.00
49377;BME280;35253;34.688;33.040;2022-10-22T08:08:27;101391.59;;;25.08;100.00
49377;BME280;35253;34.688;33.040;2022-10-22T08:10:54;101395.69;;;25.12;100.00
49377;BME280;35253;34.688;33.040;2022-10-22T08:13:21;101397.41;;;25.13;100.00
49377;BME280;35253;34.688;33.040;2022-10-22T08:15:47;101394.47;;;25.14;100.00
49377;BME280;35253;34.688;33.040;2022-10-22T08:18:12;101399.28;;;25.21;100.00
49377;BME280;35253;34.688;33.040;2022-10-22T08:20:38;101392.81;;;25.30;100.00
49377;BME280;35253;34.688;33.040;2022-10-22T08:23:03;101397.78;;;25.42;100.00
49377;BME280;35253;34.688;33.040;2022-10-22T08:25:29;101398.47;;;25.44;100.00
49377;BME280;35253;34.688;33.040;2022-10-22T08:27:54;101399.50;;;25.51;100.00
49377;BME280;35253;34.688;33.040;2022-10-22T08:30:20;101405.47;;;25.39;100.00
49377;BME280;35253;34.688;33.040;2022-10-22T08:32:45;101395.25;;;25.57;100.00
49377;BME280;35253;34.688;33.040;2022-10-22T08:35:11;101396.63;;;25.61;100.00
49377;BME280;35253;34.688;33.040;2022-10-22T08:37:36;101397.13;;;25.65;100.00
49377;BME280;35253;34.688;33.040;2022-10-22T08:40:03;101390.97;;;25.54;100.00
49377;BME280;35253;34.688;33.040;2022-10-22T08:42:34;101390.97;;;25.63;100.00
49377;BME280;35253;34.688;33.040;2022-10-22T08:47:35;101398.50;;;25.77;100.00
49377;BME280;35253;34.688;33.040;2022-10-22T08:50:07;101389.13;;;25.79;100.00
49377;BME280;35253;34.688;33.040;2022-10-22T08:52:33;101388.94;;;25.73;100.00
49377;BME280;35253;34.688;33.040;2022-10-22T08:55:01;101387.56;;;25.77;100.00
49377;BME280;35253;34.688;33.040;2022-10-22T08:57:48;101389.25;;;25.86;100.00
49377;BME280;35253;34.688;33.040;2022-10-22T09:06:11;101373.84;;;26.09;100.00
49377;BME280;35253;34.688;33.040;2022-10-22T09:08:37;101378.28;;;26.18;100.00
49377;BME280;35253;34.688;33.040;2022-10-22T09:13:41;101377.44;;;26.26;100.00
49377;BME280;35253;34.688;33.040;2022-10-22T09:16:18;101372.47;;;26.29;100.00
49377;BME280;35253;34.688;33.040;2022-10-22T09:26:55;101371.25;;;26.40;100.00
49377;BME280;35253;34.688;33.040;2022-10-22T09:29:23;101369.16;;;26.42;100.00
49377;BME280;35253;34.688;33.040;2022-10-22T09:31:52;101364.50;;;26.51;100.00
49377;BME280;35253;34.688;33.040;2022-10-22T09:34:18;101363.97;;;26.55;100.00
49377;BME280;35253;34.688;33.040;2022-10-22T09:36:44;101368.06;;;26.59;100.00
49377;BME280;35253;34.688;33.040;2022-10-22T09:39:23;101373.00;;;26.64;100.00
49377;BME280;35253;34.688;33.040;2022-10-22T09:41:49;101373.00;;;26.64;100.00
49377;BME280;35253;34.688;33.040;2022-10-22T09:44:14;101368.31;;;26.80;100.00
49377;BME280;35253;34.688;33.040;2022-10-22T09:46:41;101365.09;;;26.85;100.00
49377;BME280;35253;34.688;33.040;2022-10-22T09:49:10;101369.34;;;26.87;100.00
49377;BME280;35253;34.688;33.040;2022-10-22T09:54:20;101354.75;;;26.95;100.00
49377;BME280;35253;34.688;33.040;2022-10-22T09:56:49;101354.88;;;27.02;100.00
49377;BME280;35253;34.688;33.040;2022-10-22T09:59:15;101356.38;;;27.04;100.00
49377;BME280;35253;34.688;33.040;2022-10-22T10:01:41;101352.47;;;27.07;100.00
49377;BME280;35253;34.688;33.040;2022-10-22T10:04:07;101345.75;;;27.09;100.00
49377;BME280;35253;34.688;33.040;2022-10-22T10:06:34;101350.56;;;27.07;100.00
49377;BME280;35253;34.688;33.040;2022-10-22T10:09:00;101344.81;;;27.25;100.00
49377;BME280;35253;34.688;33.040;2022-10-22T10:11:36;101352.81;;;27.26;100.00
49377;BME280;35253;34.688;33.040;2022-10-22T10:14:18;101346.63;;;27.32;100.00
49377;BME280;35253;34.688;33.040;2022-10-22T10:16:51;101346.47;;;27.26;100.00
49377;BME280;35253;34.688;33.040;2022-10-22T10:22:04;101344.38;;;27.59;100.00
49377;BME280;35253;34.688;33.040;2022-10-22T10:27:19;101331.34;;;27.75;100.00
49377;BME280;35253;34.688;33.040;2022-10-22T10:35:18;101334.53;;;28.31;100.00
49377;BME280;35253;34.688;33.040;2022-10-22T10:37:49;101329.78;;;28.40;100.00
49377;BME280;35253;34.688;33.040;2022-10-22T10:40:28;101329.59;;;28.56;100.00
49377;BME280;35253;34.688;33.040;2022-10-22T10:43:16;101329.00;;;28.75;100.00
49377;BME280;35253;34.688;33.040;2022-10-22T10:48:17;101323.88;;;29.08;100.00
49377;BME280;35253;34.688;33.040;2022-10-22T10:53:37;101313.22;;;29.41;100.00
49377;BME280;35253;34.688;33.040;2022-10-22T10:58:33;101319.69;;;29.54;100.00
49377;BME280;35253;34.688;33.040;2022-10-22T11:01:21;101323.66;;;29.73;100.00
49377;BME280;35253;34.688;33.040;2022-10-22T11:06:23;101311.41;;;30.04;100.00
49377;BME280;35253;34.688;33.040;2022-10-22T11:09:04;101310.81;;;30.08;100.00
49377;BME280;35253;34.688;33.040;2022-10-22T11:11:44;101302.25;;;30.31;100.00
49377;BME280;35253;34.688;33.040;2022-10-22T11:19:14;101308.56;;;30.72;100.00
49377;BME280;35253;34.688;33.040;2022-10-22T11:24:23;101308.94;;;30.50;100.00
49377;BME280;35253;34.688;33.040;2022-10-22T11:26:55;101310.66;;;30.57;100.00
49377;BME280;35253;34.688;33.040;2022-10-22T11:29:23;101303.34;;;30.84;100.00
49377;BME280;35253;34.688;33.040;2022-10-22T11:31:49;101300.88;;;30.48;100.00
49377;BME280;35253;34.688;33.040;2022-10-22T11:36:41;101304.81;;;30.39;100.00
49377;BME280;35253;34.688;33.040;2022-10-22T11:39:24;101297.81;;;30.30;100.00
49377;BME280;35253;34.688;33.040;2022-10-22T11:41:51;101301.84;;;30.34;100.00
49377;BME280;35253;34.688;33.040;2022-10-22T11:44:20;101291.13;;;30.46;100.00
49377;BME280;35253;34.688;33.040;2022-10-22T11:46:57;101298.84;;;30.29;100.00
49377;BME280;35253;34.688;33.040;2022-10-22T11:49:24;101296.50;;;30.26;100.00
49377;BME280;35253;34.688;33.040;2022-10-22T11:51:50;101294.81;;;30.25;100.00
49377;BME280;35253;34.688;33.040;2022-10-22T11:59:39;101298.66;;;30.78;100.00
49377;BME280;35253;34.688;33.040;2022-10-22T12:04:49;101291.16;;;30.52;100.00
49377;BME280;35253;34.688;33.040;2022-10-22T12:09:56;101284.94;;;30.03;100.00
49377;BME280;35253;34.688;33.040;2022-10-22T12:12:21;101290.28;;;30.11;100.00
49377;BME280;35253;34.688;33.040;2022-10-22T12:15:19;101288.75;;;30.36;100.00
49377;BME280;35253;34.688;33.040;2022-10-22T12:17:35;101283.13;;;30.57;100.00
49377;BME280;35253;34.688;33.040;2022-10-22T12:20:01;101286.56;;;30.72;100.00
49377;BME280;35253;34.688;33.040;2022-10-22T12:22:32;101289.59;;;30.43;100.00
49377;BME280;35253;34.688;33.040;2022-10-22T12:25:01;101281.88;;;30.66;100.00
49377;BME280;35253;34.688;33.040;2022-10-22T12:27:36;101282.56;;;30.27;100.00
49377;BME280;35253;34.688;33.040;2022-10-22T12:30:14;101281.28;;;30.23;100.00
49377;BME280;35253;34.688;33.040;2022-10-22T12:32:41;101285.31;;;30.27;100.00
49377;BME280;35253;34.688;33.040;2022-10-22T12:35:07;101286.56;;;30.25;100.00
49377;BME280;35253;34.688;33.040;2022-10-22T12:37:36;101281.22;;;30.10;100.00
49377;BME280;35253;34.688;33.040;2022-10-22T12:40:21;101285.44;;;30.13;100.00
49377;BME280;35253;34.688;33.040;2022-10-22T12:42:48;101286.25;;;30.07;100.00
49377;BME280;35253;34.688;33.040;2022-10-22T12:45:14;101285.03;;;30.16;100.00
49377;BME280;35253;34.688;33.040;2022-10-22T12:47:43;101290.13;;;30.19;100.00
49377;BME280;35253;34.688;33.040;2022-10-22T12:50:13;101293.88;;;30.05;100.00
49377;BME280;35253;34.688;33.040;2022-10-22T12:52:39;101285.78;;;29.96;100.00
49377;BME280;35253;34.688;33.040;2022-10-22T12:55:05;101291.97;;;29.77;100.00
49377;BME280;35253;34.688;33.040;2022-10-22T12:57:34;101281.66;;;29.58;100.00
49377;BME280;35253;34.688;33.040;2022-10-22T12:59:59;101281.94;;;29.35;100.00
49377;BME280;35253;34.688;33.040;2022-10-22T13:02:27;101286.56;;;29.14;100.00
49377;BME280;35253;34.688;33.040;2022-10-22T13:07:51;101287.56;;;29.55;100.00
49377;BME280;35253;34.688;33.040;2022-10-22T13:10:24;101284.81;;;29.83;100.00
49377;BME280;35253;34.688;33.040;2022-10-22T13:12:53;101288.53;;;29.69;100.00
49377;BME280;35253;34.688;33.040;2022-10-22T13:17:48;101283.00;;;29.20;100.00
49377;BME280;35253;34.688;33.040;2022-10-22T13:20:20;101286.34;;;28.58;100.00
49377;BME280;35253;34.688;33.040;2022-10-22T13:22:53;101281.09;;;28.27;100.00
49377;BME280;35253;34.688;33.040;2022-10-22T13:25:20;101281.38;;;28.17;100.00
49377;BME280;35253;34.688;33.040;2022-10-22T13:27:47;101282.59;;;28.44;100.00
49377;BME280;35253;34.688;33.040;2022-10-22T13:32:48;101284.03;;;28.76;100.00
49377;BME280;35253;34.688;33.040;2022-10-22T13:35:14;101285.84;;;28.69;100.00
49377;BME280;35253;34.688;33.040;2022-10-22T13:37:42;101291.69;;;28.81;100.00
49377;BME280;35253;34.688;33.040;2022-10-22T13:40:11;101295.31;;;29.02;100.00
49377;BME280;35253;34.688;33.040;2022-10-22T13:42:37;101294.41;;;28.95;100.00
49377;BME280;35253;34.688;33.040;2022-10-22T13:45:03;101297.72;;;28.91;100.00
49377;BME280;35253;34.688;33.040;2022-10-22T13:47:29;101290.22;;;28.78;100.00
49377;BME280;35253;34.688;33.040;2022-10-22T13:49:55;101291.19;;;28.56;100.00
49377;BME280;35253;34.688;33.040;2022-10-22T13:52:35;101295.47;;;28.29;100.00
49377;BME280;35253;34.688;33.040;2022-10-22T13:55:11;101299.25;;;28.28;100.00
49377;BME280;35253;34.688;33.040;2022-10-22T13:57:37;101291.44;;;28.10;100.00
49377;BME280;35253;34.688;33.040;2022-10-22T14:00:02;101300.16;;;27.91;100.00
49377;BME280;35253;34.688;33.040;2022-10-22T14:02:28;101298.19;;;27.70;100.00
49377;BME280;35253;34.688;33.040;2022-10-22T14:04:53;101297.06;;;27.42;100.00